Inicio METAR Ruta Wind Satelite

Informe Meteorológico

Fecha: 2024/05/28 23:51:43 Local
2024.05.29 04:51 UTC


Operación:VFR
SKCG 290400Z 33007KT 290V350 9999 SCT013 29/27 Q1011 =

SKCG 290300Z VRB01KT 9999 FEW012 28/26 Q1011
SKCG 290200Z 01004KT 340V050 9999 SCT012 28/27 Q1010
SKCG 290100Z 33005KT 9999 FEW015 28/25 Q1010
SKCG 290004Z 01005KT 330V040 9999 SCT014 28/26 Q1010
SKCG 290000Z 01005KT 340V060 9999 BKN014 28/26 Q1010

2024/05/28 18:49
TAF SKCG 281630Z 2818/2918 34006KT 9999 SCT017
TEMPO 2818/2821 RA SCT015CB
TEMPO 2914/2916 SCT015CB TX33/2819Z TN27/2910Z